Time;durP1;ratioP1;P1;durP2;ratioP2;P2;SDS_P1;SDS_P2;PMS_P1;PMS_P2;Temp;Humidity;BMP_temperature;BMP_pressure;BME280_temperature;BME280_humidity;BME280_pressure;Samples;Min_cycle;Max_cycle;Signal;HPM_P1;HPM_P2
2022/05/19 00:00:21;;;;;;;6.30;3.22;;;21.90;99.90;;;;;;5054163;28;20223;-82
2022/05/19 00:02:46;;;;;;;4.45;3.28;;;22.00;99.90;;;;;;5053814;28;20178;-82
2022/05/19 00:05:12;;;;;;;4.95;3.25;;;22.00;99.90;;;;;;5054087;28;20170;-82
2022/05/19 00:07:37;;;;;;;7.43;3.30;;;22.00;99.90;;;;;;5071584;28;20187;-81
2022/05/19 00:10:03;;;;;;;11.02;4.40;;;22.10;99.90;;;;;;5073166;28;20235;-82
2022/05/19 00:12:30;;;;;;;16.10;3.33;;;22.10;99.90;;;;;;5058003;28;20269;-81
2022/05/19 00:14:57;;;;;;;3.15;2.88;;;21.90;99.90;;;;;;5076107;28;20167;-83
2022/05/19 00:17:24;;;;;;;4.25;3.20;;;21.80;99.90;;;;;;5057723;28;20679;-82
2022/05/19 00:19:50;;;;;;;5.70;2.85;;;21.80;99.90;;;;;;5057905;28;20170;-81
2022/05/19 00:22:16;;;;;;;8.55;3.10;;;21.80;99.90;;;;;;5076177;28;20163;-81
2022/05/19 00:24:42;;;;;;;15.68;3.95;;;21.90;99.90;;;;;;5075857;28;20217;-82
2022/05/19 00:27:08;;;;;;;7.93;3.13;;;22.00;99.90;;;;;;5057626;28;20194;-81
2022/05/19 00:29:33;;;;;;;5.25;3.47;;;22.00;99.90;;;;;;5057851;28;20166;-82
2022/05/19 00:31:59;;;;;;;13.07;3.10;;;22.20;99.90;;;;;;5075718;28;20194;-81
2022/05/19 00:34:25;;;;;;;5.07;2.97;;;22.40;99.90;;;;;;5057449;28;20586;-81
2022/05/19 00:36:59;;;;;;;6.90;2.90;;;22.30;99.90;;;;;;5057395;28;20183;-82
2022/05/19 00:39:25;;;;;;;4.57;3.08;;;22.20;99.90;;;;;;5057634;28;20627;-81
2022/05/19 00:42:43;;;;;;;6.03;3.28;;;22.20;99.90;;;;;;5075805;28;20169;-82
2022/05/19 00:44:40;;;;;;;9.95;3.05;;;22.10;99.90;;;;;;5076017;28;20218;-81
2022/05/19 00:47:11;;;;;;;11.95;3.13;;;22.30;99.90;;;;;;5076555;28;20182;-81
2022/05/19 00:49:40;;;;;;;10.82;3.60;;;22.10;99.90;;;;;;5060645;28;20174;-83
2022/05/19 00:52:36;;;;;;;6.07;3.80;;;22.00;99.90;;;;;;5057490;28;20178;-82
2022/05/19 00:55:06;;;;;;;5.85;2.97;;;22.20;99.90;;;;;;5073477;28;20230;-81
2022/05/19 00:57:36;;;;;;;8.52;3.47;;;22.40;99.90;;;;;;5075613;28;20218;-82
2022/05/19 01:00:12;;;;;;;8.02;2.92;;;22.40;99.90;;;;;;5075397;28;20185;-82
2022/05/19 01:02:42;;;;;;;8.20;2.88;;;22.40;99.90;;;;;;5075319;28;20204;-82
2022/05/19 01:05:13;;;;;;;11.93;3.05;;;22.60;99.90;;;;;;5075482;28;20194;-81
2022/05/19 01:07:54;;;;;;;4.05;3.40;;;22.60;99.90;;;;;;5076811;28;20693;-84
2022/05/19 01:10:20;;;;;;;7.90;2.90;;;22.50;99.90;;;;;;5058009;28;20615;-82
2022/05/19 01:12:49;;;;;;;8.35;3.03;;;22.50;99.90;;;;;;5080319;28;20166;-83
2022/05/19 01:15:15;;;;;;;15.55;3.28;;;22.50;99.90;;;;;;5061502;28;20270;-83
2022/05/19 01:17:41;;;;;;;7.47;3.10;;;22.30;99.90;;;;;;5060652;28;20706;-83
2022/05/19 01:20:23;;;;;;;7.30;2.83;;;22.30;99.90;;;;;;5060180;28;20162;-82
2022/05/19 01:22:55;;;;;;;6.03;3.22;;;22.30;99.90;;;;;;5059584;28;20626;-83
2022/05/19 01:25:38;;;;;;;6.95;3.05;;;22.30;99.90;;;;;;5059717;28;20170;-82
2022/05/19 01:28:04;;;;;;;4.53;3.00;;;22.20;99.90;;;;;;5077328;28;20187;-83
2022/05/19 01:30:30;;;;;;;4.35;3.10;;;22.30;99.90;;;;;;5076803;28;20504;-82
2022/05/19 01:32:56;;;;;;;6.00;3.03;;;22.30;99.90;;;;;;5076577;28;20194;-83
2022/05/19 01:35:22;;;;;;;6.57;3.40;;;22.30;99.90;;;;;;5059029;28;20510;-83
2022/05/19 01:37:48;;;;;;;5.28;3.42;;;22.50;99.90;;;;;;5058673;28;20630;-83
2022/05/19 01:40:38;;;;;;;6.07;3.67;;;22.50;99.90;;;;;;5058672;28;20167;-84
2022/05/19 01:43:09;;;;;;;7.70;3.20;;;22.40;99.90;;;;;;5058926;28;20175;-82
2022/05/19 01:46:08;;;;;;;7.88;2.70;;;22.50;99.90;;;;;;5059382;28;20527;-83
2022/05/19 01:48:52;;;;;;;6.75;3.60;;;22.60;99.90;;;;;;5058499;28;20171;-82
2022/05/19 01:51:32;;;;;;;5.22;3.25;;;22.70;99.90;;;;;;5076436;28;20526;-83
2022/05/19 01:54:25;;;;;;;6.07;2.67;;;22.70;99.90;;;;;;5076790;28;20158;-81
2022/05/19 01:57:11;;;;;;;4.35;3.15;;;22.70;99.90;;;;;;5057020;28;20183;-81
2022/05/19 02:00:01;;;;;;;10.50;3.08;;;22.70;99.90;;;;;;5056355;28;20239;-83
2022/05/19 02:03:00;;;;;;;9.70;3.88;;;22.80;99.90;;;;;;5074420;28;20183;-83
2022/05/19 02:05:44;;;;;;;13.45;4.63;;;22.40;99.90;;;;;;5056168;28;20517;-82
2022/05/19 02:08:15;;;;;;;21.23;4.38;;;22.20;99.90;;;;;;5056072;28;20190;-83
2022/05/19 02:10:45;;;;;;;10.80;3.75;;;22.00;99.90;;;;;;5073761;28;20177;-83
2022/05/19 02:13:11;;;;;;;25.85;4.07;;;22.00;99.90;;;;;;5073881;28;20500;-83
2022/05/19 02:15:41;;;;;;;16.10;4.63;;;22.00;99.90;;;;;;5056079;28;20166;-83
2022/05/19 02:18:07;;;;;;;11.70;4.90;;;22.00;99.90;;;;;;5073953;28;20198;-83
2022/05/19 02:20:34;;;;;;;11.13;5.63;;;22.00;99.90;;;;;;5056204;28;20170;-84
2022/05/19 02:23:01;;;;;;;16.95;5.50;;;21.90;99.90;;;;;;5056197;28;20185;-82
2022/05/19 02:25:46;;;;;;;10.05;5.43;;;21.80;99.90;;;;;;5073422;28;20170;-82
2022/05/19 02:28:31;;;;;;;6.85;4.95;;;21.80;99.90;;;;;;5073729;28;20194;-83
2022/05/19 02:30:58;;;;;;;6.63;4.18;;;21.90;99.90;;;;;;5055778;28;20209;-83
2022/05/19 02:33:24;;;;;;;6.93;4.15;;;22.00;99.90;;;;;;5055399;28;20171;-83
2022/05/19 02:35:50;;;;;;;11.45;4.53;;;22.10;99.90;;;;;;5073647;28;20171;-82
2022/05/19 02:38:17;;;;;;;8.52;4.35;;;22.00;99.90;;;;;;5055605;28;20183;-82
2022/05/19 02:40:44;;;;;;;5.32;3.88;;;22.00;99.90;;;;;;5055324;28;20623;-84
2022/05/19 02:43:11;;;;;;;7.78;4.20;;;22.10;99.90;;;;;;5072857;28;20261;-82
2022/05/19 02:45:37;;;;;;;10.88;4.65;;;22.20;99.90;;;;;;5073186;28;20174;-82
2022/05/19 02:48:05;;;;;;;13.27;5.00;;;22.20;99.90;;;;;;5073092;28;20183;-82
2022/05/19 02:50:31;;;;;;;17.27;4.20;;;22.20;99.90;;;;;;5056549;28;20170;-85
2022/05/19 02:52:56;;;;;;;12.07;3.83;;;22.10;99.90;;;;;;5059498;28;20159;-83
2022/05/19 02:55:22;;;;;;;8.40;3.15;;;22.10;99.90;;;;;;5060661;28;20163;-82
2022/05/19 02:57:49;;;;;;;6.80;3.03;;;21.90;99.90;;;;;;5056727;28;20228;-83
2022/05/19 03:00:18;;;;;;;2.95;2.65;;;21.70;99.90;;;;;;5075014;28;20220;-81
2022/05/19 03:02:44;;;;;;;3.50;3.20;;;21.90;99.90;;;;;;5074253;28;20159;-81
2022/05/19 03:05:13;;;;;;;4.00;2.60;;;21.90;99.90;;;;;;5074792;28;20255;-81
2022/05/19 03:07:39;;;;;;;8.93;2.42;;;21.80;99.90;;;;;;5074492;28;20178;-81
2022/05/19 03:10:05;;;;;;;9.13;2.55;;;21.70;99.90;;;;;;5074620;28;20573;-81
2022/05/19 03:12:32;;;;;;;7.55;2.53;;;21.40;99.90;;;;;;5074436;28;20171;-83
2022/05/19 03:14:57;;;;;;;4.10;2.40;;;21.50;99.90;;;;;;5074262;28;20185;-80
2022/05/19 03:17:24;;;;;;;8.02;2.40;;;21.30;99.90;;;;;;5074121;28;20588;-81
2022/05/19 03:19:53;;;;;;;3.03;2.40;;;21.10;99.90;;;;;;5061447;28;20185;-81
2022/05/19 03:22:19;;;;;;;3.05;2.78;;;21.10;99.90;;;;;;5089304;28;20261;-81
2022/05/19 03:24:45;;;;;;;3.50;3.20;;;21.20;99.90;;;;;;5056881;28;20650;-81
2022/05/19 03:27:11;;;;;;;4.35;3.00;;;21.20;99.90;;;;;;5074278;28;20186;-80
2022/05/19 03:29:36;;;;;;;9.75;3.20;;;21.10;99.90;;;;;;5058304;28;20163;-81
2022/05/19 03:32:03;;;;;;;5.57;2.92;;;21.30;99.90;;;;;;5074022;28;20162;-82
2022/05/19 03:34:28;;;;;;;6.47;3.47;;;21.30;99.90;;;;;;5074723;28;20635;-81
2022/05/19 03:36:54;;;;;;;4.25;2.85;;;21.00;99.90;;;;;;5073516;28;20197;-80
2022/05/19 03:39:20;;;;;;;6.82;3.05;;;21.00;99.90;;;;;;5059021;28;20634;-82
2022/05/19 03:41:46;;;;;;;6.47;2.65;;;21.10;99.90;;;;;;5056967;28;20629;-81
2022/05/19 03:44:11;;;;;;;8.73;3.15;;;21.10;99.90;;;;;;5074384;28;20685;-81
2022/05/19 03:46:37;;;;;;;5.65;3.58;;;20.90;99.90;;;;;;5074105;28;20586;-82
2022/05/19 03:49:03;;;;;;;5.35;4.22;;;20.60;99.90;;;;;;5074727;28;20166;-80
2022/05/19 03:51:32;;;;;;;10.73;4.90;;;20.30;99.90;;;;;;5074618;28;20197;-80
2022/05/19 03:53:59;;;;;;;6.40;3.80;;;20.10;99.90;;;;;;5057029;28;20205;-80
2022/05/19 03:56:25;;;;;;;8.43;4.45;;;20.00;99.90;;;;;;5056733;28;20266;-81
2022/05/19 03:58:51;;;;;;;7.10;4.47;;;20.10;99.90;;;;;;5074142;28;20196;-82
2022/05/19 04:01:18;;;;;;;7.88;4.65;;;20.00;99.90;;;;;;5075198;28;20169;-81
2022/05/19 04:03:45;;;;;;;12.18;4.78;;;20.00;99.90;;;;;;5074042;28;20198;-81
2022/05/19 04:06:11;;;;;;;5.50;4.88;;;20.10;99.90;;;;;;5054882;28;20757;-81
2022/05/19 04:08:36;;;;;;;5.57;5.07;;;20.10;99.90;;;;;;5072182;28;20170;-81
2022/05/19 04:11:02;;;;;;;14.38;5.47;;;20.00;99.90;;;;;;5072085;28;20173;-81
2022/05/19 04:13:28;;;;;;;10.32;5.25;;;20.10;99.90;;;;;;5072334;28;20173;-79
2022/05/19 04:15:54;;;;;;;9.52;5.18;;;20.30;99.90;;;;;;5054353;28;20571;-79
2022/05/19 04:18:19;;;;;;;4.85;4.45;;;20.30;99.90;;;;;;5071721;28;20305;-79
2022/05/19 04:20:45;;;;;;;9.40;5.90;;;20.30;99.90;;;;;;5072024;28;20232;-79
2022/05/19 04:23:11;;;;;;;8.10;6.10;;;20.50;99.90;;;;;;5054093;28;20185;-80
2022/05/19 04:25:39;;;;;;;6.88;5.82;;;20.20;99.90;;;;;;5053981;28;20609;-79
2022/05/19 04:28:05;;;;;;;7.80;5.60;;;20.20;99.90;;;;;;5071637;28;20261;-79
2022/05/19 04:30:32;;;;;;;7.57;4.60;;;20.20;99.90;;;;;;5053864;28;20174;-79
2022/05/19 04:32:58;;;;;;;14.63;5.82;;;20.00;99.90;;;;;;5071476;28;20249;-81
2022/05/19 04:35:24;;;;;;;10.52;5.03;;;20.00;99.90;;;;;;5054037;28;20190;-81
2022/05/19 04:37:50;;;;;;;13.50;5.25;;;20.00;99.90;;;;;;5053677;28;20225;-82
2022/05/19 04:40:18;;;;;;;9.65;5.20;;;19.90;99.90;;;;;;5071646;28;20250;-82
2022/05/19 04:42:44;;;;;;;6.38;5.55;;;19.90;99.90;;;;;;5053730;28;20171;-81
2022/05/19 04:45:12;;;;;;;11.45;5.13;;;20.10;99.90;;;;;;5053387;28;20202;-81
2022/05/19 04:47:38;;;;;;;9.75;5.80;;;20.20;99.90;;;;;;5071642;28;20387;-81
2022/05/19 04:50:04;;;;;;;11.82;5.90;;;20.20;99.90;;;;;;5053885;28;20173;-82
2022/05/19 04:52:30;;;;;;;18.48;6.97;;;19.90;99.90;;;;;;5071434;28;20607;-81
2022/05/19 04:54:56;;;;;;;10.63;6.68;;;19.60;99.90;;;;;;5071566;28;20173;-81
2022/05/19 04:57:21;;;;;;;15.73;7.55;;;19.60;99.90;;;;;;5056876;28;20202;-82
2022/05/19 04:59:47;;;;;;;13.82;7.13;;;19.70;99.90;;;;;;5074946;28;20642;-81
2022/05/19 05:02:13;;;;;;;11.70;7.28;;;19.60;99.90;;;;;;5056998;28;20174;-82
2022/05/19 05:04:39;;;;;;;23.08;7.18;;;19.60;99.90;;;;;;5074789;28;20206;-81
2022/05/19 05:07:05;;;;;;;18.08;8.02;;;19.70;99.90;;;;;;5075179;28;20186;-81
2022/05/19 05:09:31;;;;;;;10.73;7.00;;;19.90;99.90;;;;;;5056992;28;20530;-81
2022/05/19 05:11:57;;;;;;;18.77;7.65;;;20.00;99.90;;;;;;5074669;28;20249;-81
2022/05/19 05:14:22;;;;;;;11.70;7.65;;;19.90;99.90;;;;;;5075276;28;20202;-81
2022/05/19 05:16:50;;;;;;;14.88;6.75;;;19.90;99.90;;;;;;5056720;28;20543;-81
2022/05/19 05:19:19;;;;;;;12.65;7.25;;;19.90;99.90;;;;;;5075366;28;20170;-82
2022/05/19 05:21:50;;;;;;;12.65;7.57;;;19.90;99.90;;;;;;5074859;28;20174;-81
2022/05/19 05:24:16;;;;;;;11.73;6.32;;;19.90;99.90;;;;;;5074306;28;20218;-81
2022/05/19 05:26:42;;;;;;;11.02;6.90;;;19.90;99.90;;;;;;5056332;28;20194;-81
2022/05/19 05:29:07;;;;;;;12.23;8.68;;;20.00;99.90;;;;;;5074473;28;20178;-81
2022/05/19 05:31:33;;;;;;;31.17;8.55;;;20.20;99.90;;;;;;5056551;28;20257;-81
2022/05/19 05:33:59;;;;;;;17.45;7.18;;;20.20;99.90;;;;;;5056647;28;20206;-81
2022/05/19 05:36:25;;;;;;;11.75;6.63;;;20.30;99.90;;;;;;5056349;28;20209;-81
2022/05/19 05:38:50;;;;;;;20.23;6.70;;;20.30;99.90;;;;;;5056218;28;20244;-82
2022/05/19 05:41:16;;;;;;;13.55;6.05;;;20.20;99.90;;;;;;5056406;28;20575;-79
2022/05/19 05:43:42;;;;;;;11.90;6.30;;;20.20;99.90;;;;;;5074085;28;20206;-81
2022/05/19 05:46:14;;;;;;;7.72;5.40;;;20.30;99.90;;;;;;5074170;28;20667;-81
2022/05/19 05:48:41;;;;;;;11.80;5.47;;;20.30;99.90;;;;;;5056251;28;20177;-81
2022/05/19 05:51:11;;;;;;;7.30;6.10;;;20.50;99.90;;;;;;5074522;28;20166;-81
2022/05/19 05:53:38;;;;;;;18.02;7.32;;;20.60;99.90;;;;;;5075646;28;20627;-79
2022/05/19 05:56:06;;;;;;;12.07;6.40;;;20.60;99.90;;;;;;5077341;28;20506;-78
2022/05/19 05:58:31;;;;;;;17.73;6.38;;;20.70;99.90;;;;;;5074069;28;20171;-78
2022/05/19 06:00:57;;;;;;;8.55;6.05;;;20.70;99.90;;;;;;5074053;28;20576;-80
2022/05/19 06:03:24;;;;;;;11.45;6.35;;;20.60;99.90;;;;;;5073859;28;20190;-83
2022/05/19 06:05:49;;;;;;;12.90;7.00;;;20.70;99.90;;;;;;5055636;28;20519;-81
2022/05/19 06:08:16;;;;;;;11.52;5.68;;;21.00;99.90;;;;;;5054848;28;20289;-82
2022/05/19 06:10:42;;;;;;;17.02;7.20;;;21.00;99.90;;;;;;5073665;28;20171;-81
2022/05/19 06:13:08;;;;;;;15.60;7.35;;;20.90;99.90;;;;;;5055542;28;20162;-81
2022/05/19 06:15:35;;;;;;;10.25;5.97;;;21.00;99.90;;;;;;5073925;28;20631;-84
2022/05/19 06:18:01;;;;;;;9.15;5.72;;;21.10;99.90;;;;;;5055744;28;20296;-82
2022/05/19 06:20:27;;;;;;;12.43;6.10;;;21.20;99.90;;;;;;5056139;28;20627;-86
2022/05/19 06:22:53;;;;;;;7.72;6.40;;;21.50;99.90;;;;;;5056486;28;20167;-83
2022/05/19 06:25:21;;;;;;;8.85;6.15;;;22.00;99.90;;;;;;5073612;28;20302;-83
2022/05/19 06:27:50;;;;;;;15.15;6.25;;;22.10;99.90;;;;;;5073736;28;20190;-84
2022/05/19 06:30:17;;;;;;;23.20;5.72;;;22.40;99.90;;;;;;5073375;28;20295;-84
2022/05/19 06:32:44;;;;;;;7.07;5.03;;;22.40;99.90;;;;;;5055829;28;20166;-84
2022/05/19 06:35:13;;;;;;;8.20;5.53;;;22.50;99.90;;;;;;5055816;28;20575;-85
2022/05/19 06:37:39;;;;;;;13.27;5.85;;;22.60;99.90;;;;;;5056092;28;20207;-85
2022/05/19 06:40:05;;;;;;;10.88;5.55;;;22.70;99.90;;;;;;5056333;28;20692;-84
2022/05/19 06:42:31;;;;;;;7.68;5.43;;;22.50;99.90;;;;;;5074001;28;20198;-84
2022/05/19 06:44:57;;;;;;;9.80;5.32;;;22.20;99.90;;;;;;5055739;28;20229;-84
2022/05/19 06:47:23;;;;;;;13.52;5.53;;;22.40;99.90;;;;;;5056207;28;20244;-85
2022/05/19 06:49:55;;;;;;;14.68;5.28;;;22.70;99.90;;;;;;5055875;28;20166;-85
2022/05/19 06:52:28;;;;;;;6.60;5.70;;;22.90;99.90;;;;;;5055384;28;20170;-83
2022/05/19 06:54:56;;;;;;;7.60;3.92;;;23.00;99.90;;;;;;5055500;28;20631;-85
2022/05/19 06:57:24;;;;;;;5.13;4.25;;;23.00;99.90;;;;;;5055177;28;20206;-86
2022/05/19 06:59:51;;;;;;;7.18;3.55;;;23.20;99.90;;;;;;5055781;28;20197;-86
2022/05/19 07:02:18;;;;;;;11.38;5.18;;;23.30;99.90;;;;;;5055234;28;20260;-84
2022/05/19 07:04:44;;;;;;;13.90;4.60;;;23.60;99.90;;;;;;5055401;28;20279;-82
2022/05/19 07:07:10;;;;;;;7.32;3.50;;;23.70;99.90;;;;;;5055545;28;20535;-82
2022/05/19 07:09:37;;;;;;;4.15;2.58;;;23.80;99.90;;;;;;5055108;28;20182;-83
2022/05/19 07:12:04;;;;;;;5.78;2.88;;;23.90;99.90;;;;;;5038948;28;20171;-82
2022/05/19 07:14:30;;;;;;;8.50;2.90;;;24.20;99.90;;;;;;5034916;28;20232;-82
2022/05/19 07:16:56;;;;;;;12.25;3.38;;;24.70;99.90;;;;;;5052289;28;20195;-83
2022/05/19 07:22:08;;;;;;;3.83;2.60;;;25.70;99.90;;;;;;5053130;28;20178;-81
2022/05/19 07:24:34;;;;;;;12.75;3.28;;;26.60;99.90;;;;;;5037133;28;20224;-82
2022/05/19 07:27:00;;;;;;;3.30;2.75;;;27.10;99.90;;;;;;5053250;28;20183;-82
2022/05/19 07:29:27;;;;;;;22.98;3.10;;;27.10;99.90;;;;;;5032942;28;20175;-83
2022/05/19 07:31:58;;;;;;;6.88;2.88;;;27.30;99.90;;;;;;5033619;28;20171;-83
2022/05/19 07:34:24;;;;;;;20.77;2.50;;;27.50;99.90;;;;;;5034513;28;20262;-83
2022/05/19 07:36:50;;;;;;;20.35;2.55;;;27.50;99.90;;;;;;5034515;28;20766;-83
2022/05/19 07:39:16;;;;;;;9.38;3.13;;;27.60;99.90;;;;;;5034807;28;20262;-82
2022/05/19 07:41:42;;;;;;;15.30;3.42;;;27.80;99.90;;;;;;5052340;28;20245;-83
2022/05/19 07:44:08;;;;;;;136.25;7.93;;;27.60;99.90;;;;;;5034416;28;20207;-84
2022/05/19 07:46:35;;;;;;;17.90;2.90;;;26.90;99.90;;;;;;5034606;28;20738;-83
2022/05/19 07:49:01;;;;;;;29.25;3.03;;;26.50;99.90;;;;;;5034423;28;20173;-83
2022/05/19 07:51:31;;;;;;;35.90;4.50;;;26.50;99.90;;;;;;5034484;28;20266;-83
2022/05/19 07:53:57;;;;;;;18.08;3.50;;;26.70;99.90;;;;;;5035082;28;20159;-84
2022/05/19 07:56:23;;;;;;;31.45;3.55;;;26.60;99.90;;;;;;5052072;28;20272;-84
2022/05/19 07:58:50;;;;;;;38.47;4.15;;;26.70;99.90;;;;;;5052560;28;20170;-84
2022/05/19 08:01:16;;;;;;;13.70;3.22;;;26.80;99.90;;;;;;5034545;28;20171;-84
2022/05/19 08:03:42;;;;;;;10.10;2.75;;;26.90;99.90;;;;;;5034547;28;20267;-84
2022/05/19 08:06:10;;;;;;;4.57;2.78;;;27.00;99.90;;;;;;5052675;28;20167;-84
2022/05/19 08:08:37;;;;;;;7.57;2.50;;;27.10;99.90;;;;;;5034732;28;20193;-84
2022/05/19 08:11:03;;;;;;;11.98;2.67;;;27.00;99.90;;;;;;5034532;28;20271;-85
2022/05/19 08:16:13;;;;;;;8.40;3.03;;;26.90;99.90;;;;;;5052265;28;20186;-84
2022/05/19 08:18:38;;;;;;;19.50;3.22;;;27.10;99.90;;;;;;5034419;28;20171;-85
2022/05/19 08:21:06;;;;;;;3.63;2.53;;;27.10;99.90;;;;;;5053229;28;20620;-86
2022/05/19 08:23:35;;;;;;;12.52;2.67;;;27.40;99.90;;;;;;5040698;28;20179;-86
2022/05/19 08:26:02;;;;;;;10.52;2.80;;;27.50;99.90;;;;;;5048264;28;20180;-85
2022/05/19 08:28:30;;;;;;;7.55;2.58;;;27.60;99.90;;;;;;5034401;28;20232;-86
2022/05/19 08:31:00;;;;;;;13.27;2.40;;;27.70;99.90;;;;;;5053413;28;20174;-86
2022/05/19 08:33:26;;;;;;;6.78;3.03;;;27.80;99.90;;;;;;5038649;28;20182;-86
2022/05/19 08:35:52;;;;;;;14.55;2.35;;;27.70;99.90;;;;;;5038498;28;20171;-84
2022/05/19 08:38:19;;;;;;;20.35;3.28;;;27.50;99.90;;;;;;5055753;28;20217;-85
2022/05/19 08:40:57;;;;;;;72.57;8.82;;;27.60;99.90;;;;;;5038659;28;20167;-88
2022/05/19 08:43:39;;;;;;;56.33;4.55;;;27.50;99.90;;;;;;5060773;28;20257;-87
2022/05/19 08:46:05;;;;;;;435.98;42.15;;;27.20;99.90;;;;;;5041513;28;20175;-87
2022/05/19 08:48:30;;;;;;;44.08;5.32;;;27.20;99.90;;;;;;5041521;28;21183;-87
2022/05/19 08:51:00;;;;;;;12.18;2.78;;;27.00;99.90;;;;;;5043057;28;20171;-85
2022/05/19 08:53:31;;;;;;;26.20;3.55;;;27.00;99.90;;;;;;5040503;28;20590;-86
2022/05/19 08:56:02;;;;;;;8.60;3.05;;;27.00;99.90;;;;;;5046896;28;20179;-86
2022/05/19 08:58:59;;;;;;;15.13;3.10;;;27.30;99.90;;;;;;5040116;28;20260;-85
2022/05/19 09:01:52;;;;;;;27.70;3.90;;;27.60;99.90;;;;;;5016366;28;20651;-82
2022/05/19 09:04:42;;;;;;;6.88;2.75;;;27.60;99.90;;;;;;5055778;28;20257;-83
2022/05/19 09:08:05;;;;;;;9.43;2.83;;;27.90;99.90;;;;;;5037385;28;20233;-83
2022/05/19 09:10:49;;;;;;;23.73;4.20;;;27.90;99.90;;;;;;4996730;28;20267;-82
2022/05/19 09:13:52;;;;;;;9.57;2.95;;;28.00;99.90;;;;;;5013301;28;20200;-83
2022/05/19 09:16:26;;;;;;;8.77;2.92;;;28.00;99.90;;;;;;5030718;28;20236;-84
2022/05/19 09:19:13;;;;;;;7.63;3.13;;;28.20;99.90;;;;;;5037034;28;20250;-81
2022/05/19 09:21:42;;;;;;;8.60;2.92;;;28.30;99.90;;;;;;5054267;28;20183;-81
2022/05/19 09:24:10;;;;;;;16.98;3.47;;;28.20;99.90;;;;;;5054298;28;20199;-81
2022/05/19 09:26:47;;;;;;;3.33;2.72;;;28.10;99.90;;;;;;5036221;28;20183;-81
2022/05/19 09:29:20;;;;;;;17.27;3.05;;;27.80;99.90;;;;;;5053898;28;20194;-80
2022/05/19 09:31:50;;;;;;;8.50;3.08;;;27.90;99.90;;;;;;5054172;28;20167;-80
2022/05/19 09:34:17;;;;;;;15.70;4.13;;;27.80;99.90;;;;;;5053757;28;20220;-80
2022/05/19 09:37:07;;;;;;;9.55;3.45;;;28.00;99.90;;;;;;5054608;28;20194;-79
2022/05/19 09:39:44;;;;;;;15.77;3.40;;;28.60;99.90;;;;;;5036745;28;20166;-80
2022/05/19 09:42:13;;;;;;;13.90;2.90;;;28.50;99.90;;;;;;5053838;28;20174;-80
2022/05/19 09:44:48;;;;;;;5.25;3.20;;;28.70;99.90;;;;;;5055610;28;20594;-80
2022/05/19 09:47:19;;;;;;;13.85;3.80;;;28.60;99.90;;;;;;5037142;28;20553;-82
2022/05/19 09:49:53;;;;;;;24.20;5.90;;;28.40;99.90;;;;;;5036542;28;20261;-81
2022/05/19 09:52:23;;;;;;;10.07;3.15;;;28.80;99.90;;;;;;5054441;28;20187;-82
2022/05/19 09:55:02;;;;;;;12.20;3.25;;;28.40;99.90;;;;;;5029101;28;20266;-82
2022/05/19 09:57:45;;;;;;;13.65;3.80;;;28.30;99.90;;;;;;5053363;28;20178;-84
2022/05/19 10:00:51;;;;;;;10.73;3.13;;;28.90;99.90;;;;;;5055893;28;20167;-82
2022/05/19 10:03:36;;;;;;;23.45;3.33;;;29.50;99.90;;;;;;5052474;28;20190;-82
2022/05/19 10:06:18;;;;;;;7.03;2.83;;;29.40;99.90;;;;;;5046974;28;20602;-82
2022/05/19 10:08:45;;;;;;;9.43;2.85;;;29.70;99.90;;;;;;5055512;28;20163;-82
2022/05/19 10:11:14;;;;;;;23.67;4.28;;;29.80;99.90;;;;;;5055652;28;20170;-83
2022/05/19 10:13:48;;;;;;;12.82;3.67;;;29.90;99.90;;;;;;5056308;28;20174;-82
2022/05/19 10:16:32;;;;;;;10.07;2.92;;;29.60;99.90;;;;;;5057214;28;20177;-84
2022/05/19 10:19:20;;;;;;;13.43;4.03;;;29.40;99.90;;;;;;5057036;28;20198;-84
2022/05/19 10:21:52;;;;;;;5.18;2.95;;;29.00;99.90;;;;;;5068182;28;20175;-82
2022/05/19 10:24:36;;;;;;;32.35;4.80;;;28.50;99.90;;;;;;5070636;28;20690;-84
2022/05/19 10:33:37;;;;;;;8.40;1.38;;;27.10;99.90;;;;;;5057019;28;20546;-79
2022/05/19 10:36:28;;;;;;;7.57;1.17;;;25.20;99.90;;;;;;5037465;28;20171;-83
2022/05/19 10:39:35;;;;;;;4.47;1.08;;;23.80;99.90;;;;;;5055585;28;20666;-81
2022/05/19 10:42:09;;;;;;;18.30;2.45;;;22.00;99.90;;;;;;5052126;28;20202;-78
2022/05/19 10:45:03;;;;;;;19.98;3.10;;;21.00;99.90;;;;;;5053411;28;20659;-80
2022/05/19 10:47:56;;;;;;;5.72;2.25;;;20.00;99.90;;;;;;5053427;28;20201;-83
2022/05/19 10:50:41;;;;;;;6.40;2.35;;;19.40;99.90;;;;;;5054306;28;20171;-86
2022/05/19 10:53:22;;;;;;;8.57;1.88;;;19.00;99.90;;;;;;5053185;28;20321;-82
2022/05/19 10:56:25;;;;;;;4.05;2.13;;;19.10;99.90;;;;;;5063447;28;20167;-82
2022/05/19 10:59:09;;;;;;;2.88;1.98;;;19.10;99.90;;;;;;5063461;28;20175;-82
2022/05/19 11:01:56;;;;;;;9.52;3.05;;;19.10;99.90;;;;;;5056428;28;20615;-84
2022/05/19 11:04:46;;;;;;;11.50;2.67;;;19.10;99.90;;;;;;5054162;28;20283;-83
2022/05/19 11:07:14;;;;;;;4.63;3.10;;;19.20;99.90;;;;;;5053218;28;20183;-83
2022/05/19 11:10:14;;;;;;;10.68;3.65;;;19.30;99.90;;;;;;5055326;28;20179;-86
2022/05/19 11:12:49;;;;;;;4.63;3.65;;;19.60;99.90;;;;;;5054954;28;20167;-85
2022/05/19 11:15:36;;;;;;;14.80;6.22;;;19.50;99.90;;;;;;5051933;28;20193;-84
2022/05/19 11:18:34;;;;;;;9.68;5.00;;;19.60;99.90;;;;;;5051714;28;20581;-83
2022/05/19 11:21:13;;;;;;;9.02;4.43;;;19.80;99.90;;;;;;5011493;28;20516;-83
2022/05/19 11:24:01;;;;;;;6.32;4.95;;;20.30;99.90;;;;;;5055638;28;20249;-82
2022/05/19 11:26:31;;;;;;;11.30;5.82;;;21.00;99.90;;;;;;5053209;28;20210;-81
2022/05/19 11:29:06;;;;;;;5.97;5.32;;;21.50;99.90;;;;;;5053293;28;20163;-80
2022/05/19 11:32:13;;;;;;;11.57;5.03;;;22.00;99.90;;;;;;5052753;28;20163;-79
2022/05/19 11:35:00;;;;;;;8.20;7.13;;;22.20;99.90;;;;;;5018962;28;20623;-80
2022/05/19 11:37:40;;;;;;;9.50;7.28;;;22.10;99.90;;;;;;5052265;28;20195;-80
2022/05/19 11:40:18;;;;;;;8.43;7.72;;;22.20;99.90;;;;;;5051958;28;20163;-80
2022/05/19 11:43:02;;;;;;;15.27;8.10;;;22.00;99.90;;;;;;5052218;28;20250;-80
2022/05/19 11:45:33;;;;;;;11.80;8.55;;;21.80;99.90;;;;;;5058468;28;20207;-81
2022/05/19 11:56:41;;;;;;;15.43;9.63;;;21.50;99.90;;;;;;5052111;28;20202;-78
2022/05/19 11:59:10;;;;;;;12.35;8.98;;;21.30;99.90;;;;;;5048065;28;20170;-78
2022/05/19 12:01:47;;;;;;;18.10;10.48;;;21.00;99.90;;;;;;5072188;28;20163;-78
2022/05/19 12:04:25;;;;;;;13.80;9.52;;;20.80;99.90;;;;;;5072022;28;20209;-79
2022/05/19 12:07:00;;;;;;;10.48;9.55;;;20.70;99.90;;;;;;5070956;28;20226;-79
2022/05/19 12:09:28;;;;;;;15.70;10.85;;;20.90;99.90;;;;;;5075267;28;20523;-80
2022/05/19 12:12:14;;;;;;;12.93;10.18;;;21.10;99.90;;;;;;5067084;28;20174;-80
2022/05/19 12:14:46;;;;;;;9.45;8.73;;;21.50;99.90;;;;;;5062406;28;20580;-84
2022/05/19 12:17:29;;;;;;;9.65;8.65;;;21.70;99.90;;;;;;5061022;28;20685;-80
2022/05/19 12:20:02;;;;;;;13.80;8.95;;;21.90;99.90;;;;;;5037196;28;20613;-82
2022/05/19 12:22:35;;;;;;;95.18;14.38;;;22.30;99.90;;;;;;5055831;28;20267;-81
2022/05/19 12:25:01;;;;;;;21.65;9.55;;;22.70;99.90;;;;;;5056868;28;20202;-82
2022/05/19 12:27:37;;;;;;;13.90;5.88;;;23.10;99.90;;;;;;5075591;28;20273;-82
2022/05/19 12:33:30;;;;;;;10.60;4.97;;;22.80;99.90;;;;;;5055660;28;20195;-85
2022/05/19 12:36:10;;;;;;;6.55;5.75;;;22.70;99.90;;;;;;5043138;28;20190;-96
2022/05/19 12:38:37;;;;;;;8.30;6.75;;;22.40;99.90;;;;;;5026022;28;20171;-88
2022/05/19 12:41:04;;;;;;;12.13;7.65;;;22.80;99.90;;;;;;5055789;28;20197;-96
2022/05/19 12:43:39;;;;;;;7.47;6.60;;;23.00;99.90;;;;;;5057530;28;20213;-94
2022/05/19 12:46:33;;;;;;;8.43;6.57;;;23.20;99.90;;;;;;5059044;28;20176;-88
2022/05/19 12:49:16;;;;;;;7.45;6.65;;;23.40;99.90;;;;;;5059059;28;20175;-93
2022/05/19 12:51:53;;;;;;;7.50;6.78;;;23.40;99.90;;;;;;5039983;28;20176;-85
2022/05/19 12:54:20;;;;;;;7.45;6.68;;;23.20;99.90;;;;;;5018642;28;20227;-82
2022/05/19 12:56:46;;;;;;;8.20;7.40;;;22.80;99.90;;;;;;5019791;28;20204;-93
2022/05/19 12:59:33;;;;;;;8.43;7.68;;;23.00;99.90;;;;;;5038883;28;20523;-95
2022/05/19 13:02:02;;;;;;;10.57;7.65;;;23.30;99.90;;;;;;5044525;28;20540;-93
2022/05/19 13:04:28;;;;;;;9.57;8.73;;;23.60;99.90;;;;;;5041453;28;20617;-89
2022/05/19 13:07:17;;;;;;;16.27;8.65;;;23.90;99.90;;;;;;5044925;28;20187;-86
2022/05/19 13:10:07;;;;;;;6.78;5.97;;;24.40;99.90;;;;;;5057238;28;20213;-84
2022/05/19 13:12:57;;;;;;;5.63;5.13;;;24.90;99.90;;;;;;5057247;28;20183;-93
2022/05/19 13:15:29;;;;;;;5.28;4.30;;;24.90;99.90;;;;;;5049896;28;20171;-89
2022/05/19 13:17:58;;;;;;;11.27;4.90;;;25.00;99.90;;;;;;5044446;28;20597;-88
2022/05/19 13:20:33;;;;;;;5.45;4.03;;;25.10;99.90;;;;;;5040609;28;20172;-90
2022/05/19 13:23:02;;;;;;;5.53;3.15;;;25.50;99.90;;;;;;5046751;28;20277;-88
2022/05/19 13:25:31;;;;;;;2.85;2.65;;;25.70;99.90;;;;;;5059738;28;20201;-88
2022/05/19 13:30:49;;;;;;;2.33;2.10;;;25.00;99.90;;;;;;5056058;28;20181;-92
2022/05/19 13:33:21;;;;;;;4.03;2.35;;;24.70;99.90;;;;;;5055436;28;20170;-87